CW0003 Weather Reports


Display with metric or nautical units.
time (UTC)temp
F
wind
direction
speed
MPH
gust
MPH
rain 1hr
in
rain 24hr
in
rain mn
in
humidity
%
barometer
mb
20170226144002 39 284 0.0 0.0 0.00 0.24 0.00 49 1007.8
20170226142456 38 288 0.0 0.0 0.00 0.24 0.00 50 1007.7
20170226140953 38 288 0.0 0.0 0.00 0.24 0.00 52 1007.3
20170226135448 38 277 0.0 0.0 0.00 0.24 0.00 50 1006.9
20170226133942 38 279 0.0 0.0 0.00 0.24 0.00 53 1006.5
20170226132439 38 287 0.0 0.0 0.00 0.24 0.00 55 1006.3
20170226130937 37 265 0.0 0.0 0.00 0.24 0.00 52 1006.3
20170226125433 37 313 0.0 0.0 0.00 0.24 0.00 56 1006.0
20170226123935 37 282 0.0 0.0 0.00 0.24 0.00 58 1005.5
20170226122425 37 277 0.0 0.0 0.00 0.24 0.00 59 1005.1
20170226120925 37 318 0.0 0.0 0.00 0.24 0.00 62 1004.6
20170226115424 37 296 0.0 0.0 0.00 0.24 0.00 63 1004.3
20170226113920 37 253 0.0 0.0 0.00 0.24 0.00 64 1003.9
20170226112413 37 241 0.0 0.0 0.00 0.24 0.00 65 1003.6
20170226110904 37 284 0.0 0.0 0.00 0.24 0.00 67 1003.4
20170226105405 36 266 0.0 0.0 0.00 0.24 0.00 69 1003.2
20170226103855 37 220 0.0 0.0 0.00 0.24 0.00 68 1002.9
20170226102351 37 267 0.0 0.0 0.00 0.24 0.00 67 1002.7
20170226100845 38 264 0.0 0.0 0.00 0.24 0.00 66 1002.5
20170226095344 38 280 0.0 0.0 0.00 0.24 0.00 65 1002.3
20170226093942 38 284 0.0 0.0 0.00 0.24 0.00 65 1002.0
20170226092418 39 271 0.0 0.0 0.00 0.24 0.00 66 1001.5
20170226090913 39 257 0.0 0.0 0.00 0.24 0.00 65 1001.1
20170226085407 40 222 0.0 0.0 0.00 0.24 0.00 72 1000.5
20170226083856 40 292 0.0 0.0 0.00 0.24 0.00 70 1000.3
20170226082353 41 286 0.0 0.0 0.00 0.24 0.00 74 1000.1
20170226080848 41 290 0.0 0.0 0.00 0.24 0.00 76 999.3
20170226075343 41 239 0.0 0.0 0.00 0.24 0.00 76 999.1
20170226073838 41 284 0.0 0.0 0.00 0.24 0.00 78 998.4
20170226072335 41 304 0.0 0.0 0.00 0.24 0.00 80 998.5
20170226070832 41 238 0.0 0.0 0.00 0.24 0.00 83 998.5
20170226065333 40 279 0.0 0.0 0.00 0.24 0.00 87 998.3
20170226063829 40 355 0.0 0.0 0.00 0.24 0.00 90 997.6
20170226062324 41 263 0.0 0.0 0.00 0.24 0.00 91 997.8
20170226060823 41 339 0.0 0.0 0.00 0.24 0.00 90 997.5
20170226055315 42 271 0.0 0.0 0.00 0.24 0.00 88 997.8
20170226053810 43 282 0.0 0.0 0.00 0.24 0.00 86 997.8
20170226052306 44 306 0.0 0.0 0.00 0.24 0.00 88 997.6
20170226050800 45 316 0.0 0.0 0.00 0.24 0.00 92 997.4
20170226045301 45 283 0.0 0.0 0.00 0.24 0.24 92 997.5
20170226043754 46 298 0.0 0.0 0.02 0.24 0.24 93 997.0
20170226042250 47 259 0.0 0.0 0.05 0.24 0.24 92 997.3
20170226040748 47 315 0.0 0.0 0.08 0.24 0.24 94 997.8
20170226035244 48 289 0.0 0.0 0.09 0.23 0.23 93 997.5
20170226033740 49 292 0.0 0.0 0.17 0.22 0.22 93 997.1
20170226032238 50 281 0.0 0.0 0.16 0.19 0.19 95 997.1
20170226030736 51 292 0.0 0.0 0.13 0.16 0.16 94 997.0
20170226025239 52 271 0.0 0.0 0.12 0.14 0.14 94 997.4
20170226023732 55 248 0.0 0.0 0.04 0.05 0.05 97 996.9
20170226022231 55 211 0.0 0.0 0.02 0.03 0.03 97 995.7
20170226020727 55 188 0.0 0.0 0.02 0.03 0.03 96 995.8
20170226015225 56 153 0.0 0.0 0.02 0.02 0.02 97 995.7
20170226013729 56 197 0.0 0.0 0.01 0.01 0.01 96 995.7
20170226012220 57 144 0.0 0.0 0.01 0.01 0.01 97 995.8
20170226010721 57 198 0.0 0.0 0.01 0.01 0.01 97 996.1
20170226005214 57 172 0.0 0.0 0.00 0.00 0.00 96 996.5
20170226003710 57 155 0.0 0.0 0.00 0.00 0.00 96 997.2
20170226002210 57 156 0.0 0.0 0.00 0.00 0.00 96 997.4
20170226000701 57 166 0.0 0.0 0.00 0.00 0.00 95 997.6
20170225235202 58 163 0.0 0.0 0.00 0.00 0.00 95 997.8
20170225233654 58 148 0.0 0.0 0.00 0.00 0.00 93 998.3
20170225232151 59 188 0.0 0.0 0.00 0.00 0.00 91 998.1
20170225230647 60 186 0.0 0.0 0.00 0.00 0.00 86 998.0
20170225225148 60 195 0.0 0.0 0.00 0.00 0.00 86 997.6
20170225223642 60 147 0.0 0.0 0.00 0.00 0.00 87 997.7
20170225222138 60 129 0.0 0.0 0.00 0.00 0.00 88 998.1
20170225220638 61 169 0.0 0.0 0.00 0.00 0.00 87 998.4
20170225215138 61 149 0.0 0.0 0.00 0.00 0.00 87 998.6
20170225213630 62 163 0.0 0.0 0.00 0.00 0.00 83 999.0
20170225212124 63 192 0.0 0.0 0.00 0.00 0.00 83 999.4
20170225210618 64 156 0.0 0.0 0.00 0.00 0.00 78 1000.0
20170225205116 65 114 0.0 0.0 0.00 0.00 0.00 75 1000.5
20170225203614 67 150 0.0 0.0 0.00 0.00 0.00 69 1000.3
20170225202112 66 215 0.0 0.0 0.00 0.00 0.00 69 1000.8
20170225200604 67 142 0.0 0.0 0.00 0.00 0.00 67 1001.2
20170225195101 67 144 0.0 0.0 0.00 0.00 0.00 67 1001.6
20170225193558 68 120 0.0 0.0 0.00 0.00 0.00 64 1001.6
20170225192056 68 167 0.0 0.0 0.00 0.00 0.00 64 1002.1
20170225190552 68 180 0.0 0.0 0.00 0.00 0.00 65 1002.4
20170225185051 68 161 0.0 0.0 0.00 0.00 0.00 67 1002.5
20170225183544 68 204 0.0 0.0 0.00 0.00 0.00 67 1002.8
20170225182042 67 189 0.0 0.0 0.00 0.00 0.00 70 1003.3
20170225180540 68 167 0.0 0.0 0.00 0.00 0.00 69 1003.6
20170225175035 66 171 0.0 0.0 0.00 0.00 0.00 71 1003.8
20170225173524 66 162 0.0 0.0 0.00 0.00 0.00 71 1004.2
20170225172018 67 141 0.0 0.0 0.00 0.00 0.00 71 1004.4
20170225170514 67 190 0.0 0.0 0.00 0.00 0.00 73 1004.5
20170225164958 66 149 0.0 0.0 0.00 0.00 0.00 74 1005.1
20170225163452 65 181 0.0 0.0 0.00 0.00 0.00 77 1005.4
20170225161948 63 192 0.0 0.0 0.00 0.00 0.00 80 1005.9
20170225160538 63 180 0.0 0.0 0.00 0.00 0.00 81 1006.1
20170225155030 61 210 0.0 0.0 0.00 0.00 0.00 85 1006.2
20170225153517 60 173 0.0 0.0 0.00 0.00 0.00 85 1006.7
20170225152011 60 220 0.0 0.0 0.00 0.00 0.00 87 1007.0
20170225150504 59 182 0.0 0.0 0.00 0.00 0.00 88 1007.2
20170225145000 58 133 0.0 0.0 0.00 0.00 0.00 92 1007.4